createdAt,value
2022-08-19T04:47:58.502Z,17.90
2022-08-19T04:53:01.076Z,17.80
2022-08-19T04:58:03.455Z,17.80
2022-08-19T05:03:05.313Z,17.70
2022-08-19T05:08:09.799Z,17.70
2022-08-19T05:13:13.779Z,17.60
2022-08-19T05:18:34.174Z,17.50
2022-08-19T05:23:36.361Z,17.50
2022-08-19T05:28:38.565Z,17.40
2022-08-19T05:33:40.761Z,17.40
2022-08-19T05:38:42.644Z,17.40
2022-08-19T05:43:44.573Z,17.40
2022-08-19T05:48:47.158Z,17.40
2022-08-19T05:53:49.300Z,17.40
2022-08-19T05:58:51.338Z,17.50
2022-08-19T06:03:53.749Z,17.50
2022-08-19T06:08:55.638Z,17.60
2022-08-19T06:14:00.251Z,17.60
2022-08-19T06:19:08.309Z,17.70
2022-08-19T06:24:13.803Z,17.70
2022-08-19T06:29:23.593Z,17.80
2022-08-19T06:34:28.946Z,17.90
2022-08-19T06:39:35.429Z,18.00
2022-08-19T06:44:43.351Z,18.10
2022-08-19T06:49:45.937Z,18.20
2022-08-19T06:54:55.892Z,18.30
2022-08-19T06:59:58.691Z,18.40
2022-08-19T07:05:03.547Z,18.50
2022-08-19T07:10:09.318Z,18.50
2022-08-19T07:15:12.181Z,18.60
2022-08-19T07:20:15.327Z,18.60
2022-08-19T07:25:21.875Z,18.70
2022-08-19T07:30:37.599Z,18.80
2022-08-19T07:35:40.324Z,18.80
2022-08-19T07:40:42.490Z,19.00
2022-08-19T07:45:44.698Z,19.00
2022-08-19T07:50:46.870Z,19.10
2022-08-19T07:55:49.550Z,19.10
2022-08-19T08:00:52.419Z,19.20
2022-08-19T08:06:12.699Z,19.20
2022-08-19T08:11:20.059Z,19.20
2022-08-19T08:16:22.758Z,19.30
2022-08-19T08:21:24.698Z,19.30
2022-08-19T08:26:27.244Z,19.40
2022-08-19T08:31:30.736Z,19.40
2022-08-19T08:36:34.618Z,19.50
2022-08-19T08:42:10.362Z,19.50
2022-08-19T08:47:22.863Z,19.50
2022-08-19T08:52:36.219Z,19.50
2022-08-19T08:58:02.863Z,19.60
2022-08-19T09:03:16.326Z,19.70
2022-08-19T09:08:44.439Z,19.70
2022-08-19T09:14:49.768Z,19.70
2022-08-19T09:20:09.768Z,19.80
2022-08-19T09:25:17.810Z,19.90
2022-08-19T09:30:33.273Z,20.00
2022-08-19T09:35:49.541Z,20.00
2022-08-19T09:40:54.749Z,20.00
2022-08-19T09:45:56.921Z,20.10
2022-08-19T09:51:16.090Z,20.20
2022-08-19T09:56:20.218Z,20.30
2022-08-19T10:01:26.265Z,20.40
2022-08-19T10:06:46.120Z,20.50
2022-08-19T10:11:54.636Z,20.50
2022-08-19T10:16:57.589Z,20.60
2022-08-19T10:22:05.587Z,20.80
2022-08-19T10:27:16.508Z,20.90
2022-08-19T10:32:18.852Z,21.00
2022-08-19T10:37:49.788Z,21.10
2022-08-19T10:42:59.724Z,21.20
2022-08-19T10:48:01.606Z,21.40
2022-08-19T10:53:09.877Z,21.60
2022-08-19T10:58:19.006Z,21.80
2022-08-19T11:03:22.290Z,21.90
2022-08-19T11:08:25.340Z,22.20
2022-08-19T11:13:29.542Z,22.50
2022-08-19T11:18:31.555Z,23.00
2022-08-19T11:23:33.664Z,23.30
2022-08-19T11:28:41.746Z,23.30
2022-08-19T11:33:47.855Z,23.20
2022-08-19T11:38:53.574Z,23.20
2022-08-19T11:43:57.098Z,23.30
2022-08-19T11:49:01.824Z,23.50
2022-08-19T11:54:07.850Z,23.60
2022-08-19T11:59:14.942Z,23.60
2022-08-19T12:04:19.323Z,23.70
2022-08-19T12:09:24.324Z,23.70
2022-08-19T12:14:26.495Z,23.70
2022-08-19T12:19:29.374Z,23.60
2022-08-19T12:24:33.492Z,23.50
2022-08-19T12:29:38.697Z,23.30
2022-08-19T12:34:41.136Z,23.30
2022-08-19T12:39:45.017Z,23.20
2022-08-19T12:44:48.717Z,23.20
2022-08-19T12:49:53.435Z,23.20
2022-08-19T12:54:58.492Z,23.10
2022-08-19T13:00:14.855Z,23.10
2022-08-19T13:05:26.511Z,23.20
2022-08-19T13:10:35.775Z,23.20
2022-08-19T13:15:42.094Z,23.20
2022-08-19T13:20:52.563Z,23.30
2022-08-19T13:26:07.016Z,23.40
2022-08-19T13:31:27.629Z,23.50
2022-08-19T13:36:29.969Z,23.70
2022-08-19T13:41:32.236Z,23.90
2022-08-19T13:46:34.256Z,24.40
2022-08-19T13:51:36.430Z,24.80
2022-08-19T13:56:46.738Z,25.10
2022-08-19T14:01:48.742Z,25.20
2022-08-19T14:06:50.854Z,25.20
2022-08-19T14:11:52.834Z,25.20
2022-08-19T14:16:55.870Z,25.20
2022-08-19T14:21:58.554Z,25.20
2022-08-19T14:27:00.881Z,25.20
2022-08-19T14:32:03.021Z,25.50
2022-08-19T14:37:05.160Z,25.60
2022-08-19T14:42:11.677Z,25.60
2022-08-19T14:47:14.859Z,25.50
2022-08-19T14:52:17.055Z,25.50
2022-08-19T14:57:19.014Z,25.40
2022-08-19T15:02:34.852Z,25.20
2022-08-19T15:07:39.294Z,24.80
2022-08-19T15:12:43.290Z,24.30
2022-08-19T15:17:47.410Z,23.80
2022-08-19T15:22:50.161Z,23.70
2022-08-19T15:27:52.327Z,23.60
2022-08-19T15:32:56.999Z,23.40
2022-08-19T15:37:58.955Z,23.10
2022-08-19T15:43:01.230Z,23.00
2022-08-19T15:48:05.119Z,22.80
2022-08-19T15:53:10.274Z,22.70
2022-08-19T15:58:33.182Z,22.60
2022-08-19T16:03:54.091Z,22.50
2022-08-19T16:08:59.369Z,22.40
2022-08-19T16:14:01.889Z,22.40
2022-08-19T16:19:10.308Z,22.40
2022-08-19T16:24:17.471Z,22.30
2022-08-19T16:29:34.633Z,22.10
2022-08-19T16:34:42.979Z,21.80
2022-08-19T16:39:45.205Z,21.60
2022-08-19T16:44:47.071Z,21.40
2022-08-19T16:49:54.228Z,21.40
2022-08-19T16:54:57.345Z,21.20
2022-08-19T16:59:59.388Z,21.30
2022-08-19T17:05:01.412Z,21.30
2022-08-19T17:10:06.970Z,21.30
2022-08-19T17:15:18.354Z,21.40
2022-08-19T17:20:21.635Z,21.40
2022-08-19T17:25:28.894Z,21.30
2022-08-19T17:30:33.130Z,21.30
2022-08-19T17:35:37.110Z,21.30
2022-08-19T17:40:42.603Z,21.20
2022-08-19T17:45:45.528Z,21.30
2022-08-19T17:50:47.994Z,21.20
2022-08-19T17:55:50.437Z,21.30
2022-08-19T18:00:55.502Z,21.30
2022-08-19T18:05:58.284Z,21.30
2022-08-19T18:11:01.128Z,21.20
2022-08-19T18:16:05.493Z,21.20
2022-08-19T18:21:08.734Z,21.20
2022-08-19T18:26:11.904Z,21.20
2022-08-19T18:31:14.140Z,21.10
2022-08-19T18:36:27.885Z,21.10
2022-08-19T18:41:58.073Z,21.00
2022-08-19T18:47:18.527Z,21.00
2022-08-19T18:52:25.507Z,21.00
2022-08-19T18:57:27.471Z,21.00
2022-08-19T19:02:29.512Z,20.90
2022-08-19T19:07:31.845Z,20.90
2022-08-19T19:12:42.410Z,20.80
2022-08-19T19:17:45.125Z,20.80
2022-08-19T19:22:49.982Z,20.80
